sensor_id;sensor_type;location;lat;lon;timestamp;P1;durP1;ratioP1;P2;durP2;ratioP2
4486;SDS011;2256;48.740;9.106;2023-03-02T00:00:00;37.00;;;17.95;;
4486;SDS011;2256;48.740;9.106;2023-03-02T00:02:35;48.33;;;18.80;;
4486;SDS011;2256;48.740;9.106;2023-03-02T00:05:05;38.28;;;17.95;;
4486;SDS011;2256;48.740;9.106;2023-03-02T00:07:34;46.67;;;19.80;;
4486;SDS011;2256;48.740;9.106;2023-03-02T00:10:03;47.50;;;19.95;;
4486;SDS011;2256;48.740;9.106;2023-03-02T00:12:31;52.53;;;19.55;;
4486;SDS011;2256;48.740;9.106;2023-03-02T00:14:58;41.88;;;18.15;;
4486;SDS011;2256;48.740;9.106;2023-03-02T00:17:25;41.15;;;18.85;;
4486;SDS011;2256;48.740;9.106;2023-03-02T00:19:54;45.00;;;19.27;;
4486;SDS011;2256;48.740;9.106;2023-03-02T00:22:31;53.13;;;18.90;;
4486;SDS011;2256;48.740;9.106;2023-03-02T00:24:58;43.83;;;18.50;;
4486;SDS011;2256;48.740;9.106;2023-03-02T00:27:24;51.20;;;19.02;;
4486;SDS011;2256;48.740;9.106;2023-03-02T00:29:54;62.53;;;19.80;;
4486;SDS011;2256;48.740;9.106;2023-03-02T00:32:20;48.80;;;20.10;;
4486;SDS011;2256;48.740;9.106;2023-03-02T00:34:47;46.83;;;20.15;;
4486;SDS011;2256;48.740;9.106;2023-03-02T00:37:15;49.15;;;18.92;;
4486;SDS011;2256;48.740;9.106;2023-03-02T00:39:42;53.60;;;19.13;;
4486;SDS011;2256;48.740;9.106;2023-03-02T00:42:10;48.28;;;19.85;;
4486;SDS011;2256;48.740;9.106;2023-03-02T00:44:36;42.03;;;18.52;;
4486;SDS011;2256;48.740;9.106;2023-03-02T00:47:03;46.00;;;18.25;;
4486;SDS011;2256;48.740;9.106;2023-03-02T00:49:30;52.55;;;19.35;;
4486;SDS011;2256;48.740;9.106;2023-03-02T00:51:57;49.50;;;19.40;;
4486;SDS011;2256;48.740;9.106;2023-03-02T00:54:25;48.70;;;18.60;;
4486;SDS011;2256;48.740;9.106;2023-03-02T00:56:52;50.67;;;20.67;;
4486;SDS011;2256;48.740;9.106;2023-03-02T00:59:18;50.42;;;19.35;;
4486;SDS011;2256;48.740;9.106;2023-03-02T01:01:55;47.67;;;20.05;;
4486;SDS011;2256;48.740;9.106;2023-03-02T01:04:23;46.25;;;19.25;;
4486;SDS011;2256;48.740;9.106;2023-03-02T01:06:53;52.55;;;19.48;;
4486;SDS011;2256;48.740;9.106;2023-03-02T01:09:20;60.88;;;19.65;;
4486;SDS011;2256;48.740;9.106;2023-03-02T01:11:49;42.92;;;19.60;;
4486;SDS011;2256;48.740;9.106;2023-03-02T01:14:16;53.50;;;20.60;;
4486;SDS011;2256;48.740;9.106;2023-03-02T01:16:43;47.30;;;20.50;;
4486;SDS011;2256;48.740;9.106;2023-03-02T01:19:11;48.72;;;19.48;;
4486;SDS011;2256;48.740;9.106;2023-03-02T01:21:38;45.90;;;18.65;;
4486;SDS011;2256;48.740;9.106;2023-03-02T01:24:06;52.55;;;20.13;;
4486;SDS011;2256;48.740;9.106;2023-03-02T01:26:33;52.75;;;20.75;;
4486;SDS011;2256;48.740;9.106;2023-03-02T01:29:01;43.97;;;18.98;;
4486;SDS011;2256;48.740;9.106;2023-03-02T01:31:29;45.53;;;19.58;;
4486;SDS011;2256;48.740;9.106;2023-03-02T01:33:56;48.40;;;20.60;;
4486;SDS011;2256;48.740;9.106;2023-03-02T01:36:22;52.83;;;20.58;;
4486;SDS011;2256;48.740;9.106;2023-03-02T01:38:49;53.47;;;19.20;;
4486;SDS011;2256;48.740;9.106;2023-03-02T01:41:18;46.00;;;18.17;;
4486;SDS011;2256;48.740;9.106;2023-03-02T01:43:45;49.20;;;20.45;;
4486;SDS011;2256;48.740;9.106;2023-03-02T01:46:13;47.22;;;20.42;;
4486;SDS011;2256;48.740;9.106;2023-03-02T01:48:44;47.35;;;19.50;;
4486;SDS011;2256;48.740;9.106;2023-03-02T01:51:15;50.80;;;21.70;;
4486;SDS011;2256;48.740;9.106;2023-03-02T01:53:44;41.33;;;18.13;;
4486;SDS011;2256;48.740;9.106;2023-03-02T01:56:12;56.70;;;20.77;;
4486;SDS011;2256;48.740;9.106;2023-03-02T01:58:41;43.40;;;18.67;;
4486;SDS011;2256;48.740;9.106;2023-03-02T02:01:08;51.40;;;21.40;;
4486;SDS011;2256;48.740;9.106;2023-03-02T02:03:40;44.20;;;19.08;;
4486;SDS011;2256;48.740;9.106;2023-03-02T02:06:10;50.45;;;19.83;;
4486;SDS011;2256;48.740;9.106;2023-03-02T02:08:42;52.00;;;20.60;;
4486;SDS011;2256;48.740;9.106;2023-03-02T02:11:09;49.58;;;19.92;;
4486;SDS011;2256;48.740;9.106;2023-03-02T02:13:36;53.40;;;20.00;;
4486;SDS011;2256;48.740;9.106;2023-03-02T02:16:04;51.92;;;21.05;;
4486;SDS011;2256;48.740;9.106;2023-03-02T02:18:31;54.00;;;22.17;;
4486;SDS011;2256;48.740;9.106;2023-03-02T02:21:02;52.15;;;21.92;;
4486;SDS011;2256;48.740;9.106;2023-03-02T02:23:32;59.50;;;21.92;;
4486;SDS011;2256;48.740;9.106;2023-03-02T02:26:13;53.42;;;20.90;;
4486;SDS011;2256;48.740;9.106;2023-03-02T02:28:46;60.50;;;23.45;;
4486;SDS011;2256;48.740;9.106;2023-03-02T02:31:22;53.22;;;20.77;;
4486;SDS011;2256;48.740;9.106;2023-03-02T02:33:54;53.25;;;20.52;;
4486;SDS011;2256;48.740;9.106;2023-03-02T02:36:25;43.63;;;19.65;;
4486;SDS011;2256;48.740;9.106;2023-03-02T02:38:57;49.45;;;20.45;;
4486;SDS011;2256;48.740;9.106;2023-03-02T02:41:30;51.13;;;21.70;;
4486;SDS011;2256;48.740;9.106;2023-03-02T02:44:01;49.22;;;21.30;;
4486;SDS011;2256;48.740;9.106;2023-03-02T02:46:28;54.03;;;22.05;;
4486;SDS011;2256;48.740;9.106;2023-03-02T02:48:56;53.33;;;21.23;;
4486;SDS011;2256;48.740;9.106;2023-03-02T02:51:25;58.80;;;21.25;;
4486;SDS011;2256;48.740;9.106;2023-03-02T02:53:55;52.65;;;22.17;;
4486;SDS011;2256;48.740;9.106;2023-03-02T02:56:24;59.35;;;22.65;;
4486;SDS011;2256;48.740;9.106;2023-03-02T02:58:53;50.58;;;20.83;;
4486;SDS011;2256;48.740;9.106;2023-03-02T03:01:23;65.78;;;21.00;;
4486;SDS011;2256;48.740;9.106;2023-03-02T03:03:51;48.08;;;20.35;;
4486;SDS011;2256;48.740;9.106;2023-03-02T03:06:22;45.20;;;20.40;;
4486;SDS011;2256;48.740;9.106;2023-03-02T03:08:55;57.25;;;20.98;;
4486;SDS011;2256;48.740;9.106;2023-03-02T03:11:24;56.63;;;21.08;;
4486;SDS011;2256;48.740;9.106;2023-03-02T03:13:56;59.80;;;21.95;;
4486;SDS011;2256;48.740;9.106;2023-03-02T03:16:27;56.75;;;21.20;;
4486;SDS011;2256;48.740;9.106;2023-03-02T03:18:55;55.47;;;21.65;;
4486;SDS011;2256;48.740;9.106;2023-03-02T03:21:24;55.17;;;23.85;;
4486;SDS011;2256;48.740;9.106;2023-03-02T03:23:51;52.85;;;21.73;;
4486;SDS011;2256;48.740;9.106;2023-03-02T03:26:18;50.72;;;22.55;;
4486;SDS011;2256;48.740;9.106;2023-03-02T03:28:45;54.60;;;22.13;;
4486;SDS011;2256;48.740;9.106;2023-03-02T03:31:13;50.40;;;22.50;;
4486;SDS011;2256;48.740;9.106;2023-03-02T03:33:40;61.30;;;21.48;;
4486;SDS011;2256;48.740;9.106;2023-03-02T03:36:07;58.22;;;22.98;;
4486;SDS011;2256;48.740;9.106;2023-03-02T03:38:33;62.40;;;22.70;;
4486;SDS011;2256;48.740;9.106;2023-03-02T03:41:01;55.60;;;21.50;;
4486;SDS011;2256;48.740;9.106;2023-03-02T03:43:27;54.90;;;22.00;;
4486;SDS011;2256;48.740;9.106;2023-03-02T03:45:54;58.58;;;21.60;;
4486;SDS011;2256;48.740;9.106;2023-03-02T03:48:22;62.30;;;22.08;;
4486;SDS011;2256;48.740;9.106;2023-03-02T03:50:49;52.58;;;21.55;;
4486;SDS011;2256;48.740;9.106;2023-03-02T03:53:16;55.47;;;21.90;;
4486;SDS011;2256;48.740;9.106;2023-03-02T03:55:43;49.90;;;22.20;;
4486;SDS011;2256;48.740;9.106;2023-03-02T03:58:10;59.30;;;21.58;;
4486;SDS011;2256;48.740;9.106;2023-03-02T04:00:36;58.63;;;24.20;;
4486;SDS011;2256;48.740;9.106;2023-03-02T04:03:03;48.10;;;20.50;;
4486;SDS011;2256;48.740;9.106;2023-03-02T04:05:31;54.83;;;21.58;;
4486;SDS011;2256;48.740;9.106;2023-03-02T04:07:58;57.03;;;21.95;;
4486;SDS011;2256;48.740;9.106;2023-03-02T04:10:26;58.58;;;22.08;;
4486;SDS011;2256;48.740;9.106;2023-03-02T04:12:53;58.85;;;21.95;;
4486;SDS011;2256;48.740;9.106;2023-03-02T04:15:20;49.47;;;19.98;;
4486;SDS011;2256;48.740;9.106;2023-03-02T04:17:46;57.70;;;20.17;;
4486;SDS011;2256;48.740;9.106;2023-03-02T04:20:13;54.13;;;21.58;;
4486;SDS011;2256;48.740;9.106;2023-03-02T04:22:43;57.33;;;22.45;;
4486;SDS011;2256;48.740;9.106;2023-03-02T04:25:10;58.35;;;22.30;;
4486;SDS011;2256;48.740;9.106;2023-03-02T04:27:38;49.22;;;21.73;;
4486;SDS011;2256;48.740;9.106;2023-03-02T04:30:06;64.70;;;21.52;;
4486;SDS011;2256;48.740;9.106;2023-03-02T04:32:34;56.92;;;22.73;;
4486;SDS011;2256;48.740;9.106;2023-03-02T04:35:02;52.70;;;22.33;;
4486;SDS011;2256;48.740;9.106;2023-03-02T04:37:29;55.08;;;22.92;;
4486;SDS011;2256;48.740;9.106;2023-03-02T04:39:57;64.53;;;22.90;;
4486;SDS011;2256;48.740;9.106;2023-03-02T04:42:24;58.03;;;23.10;;
4486;SDS011;2256;48.740;9.106;2023-03-02T04:44:51;60.15;;;23.25;;
4486;SDS011;2256;48.740;9.106;2023-03-02T04:47:18;51.33;;;20.90;;
4486;SDS011;2256;48.740;9.106;2023-03-02T04:49:44;61.17;;;23.65;;
4486;SDS011;2256;48.740;9.106;2023-03-02T04:52:13;53.30;;;20.52;;
4486;SDS011;2256;48.740;9.106;2023-03-02T04:54:40;58.72;;;22.08;;
4486;SDS011;2256;48.740;9.106;2023-03-02T04:57:08;55.90;;;22.63;;
4486;SDS011;2256;48.740;9.106;2023-03-02T04:59:35;62.88;;;23.05;;
4486;SDS011;2256;48.740;9.106;2023-03-02T05:02:02;59.65;;;23.10;;
4486;SDS011;2256;48.740;9.106;2023-03-02T05:04:29;58.55;;;22.98;;
4486;SDS011;2256;48.740;9.106;2023-03-02T05:06:55;67.53;;;23.60;;
4486;SDS011;2256;48.740;9.106;2023-03-02T05:09:23;54.13;;;22.27;;
4486;SDS011;2256;48.740;9.106;2023-03-02T05:11:54;62.35;;;22.25;;
4486;SDS011;2256;48.740;9.106;2023-03-02T05:14:24;60.83;;;22.65;;
4486;SDS011;2256;48.740;9.106;2023-03-02T05:16:51;58.75;;;23.30;;
4486;SDS011;2256;48.740;9.106;2023-03-02T05:19:18;55.72;;;22.65;;
4486;SDS011;2256;48.740;9.106;2023-03-02T05:21:45;57.60;;;22.30;;
4486;SDS011;2256;48.740;9.106;2023-03-02T05:24:13;70.68;;;22.73;;
4486;SDS011;2256;48.740;9.106;2023-03-02T05:26:40;74.05;;;24.13;;
4486;SDS011;2256;48.740;9.106;2023-03-02T05:29:07;54.72;;;20.52;;
4486;SDS011;2256;48.740;9.106;2023-03-02T05:31:36;58.78;;;22.38;;
4486;SDS011;2256;48.740;9.106;2023-03-02T05:34:05;63.83;;;23.90;;
4486;SDS011;2256;48.740;9.106;2023-03-02T05:36:34;53.97;;;22.65;;
4486;SDS011;2256;48.740;9.106;2023-03-02T05:39:00;49.03;;;22.98;;
4486;SDS011;2256;48.740;9.106;2023-03-02T05:41:30;49.78;;;21.80;;
4486;SDS011;2256;48.740;9.106;2023-03-02T05:43:56;57.40;;;21.85;;
4486;SDS011;2256;48.740;9.106;2023-03-02T05:46:23;47.85;;;21.02;;
4486;SDS011;2256;48.740;9.106;2023-03-02T05:48:52;68.25;;;23.08;;
4486;SDS011;2256;48.740;9.106;2023-03-02T05:51:19;57.58;;;22.88;;
4486;SDS011;2256;48.740;9.106;2023-03-02T05:53:46;53.87;;;22.90;;
4486;SDS011;2256;48.740;9.106;2023-03-02T05:56:13;53.28;;;21.00;;
4486;SDS011;2256;48.740;9.106;2023-03-02T05:58:40;58.83;;;22.83;;
4486;SDS011;2256;48.740;9.106;2023-03-02T06:01:07;49.50;;;19.65;;
4486;SDS011;2256;48.740;9.106;2023-03-02T06:03:35;52.05;;;21.67;;
4486;SDS011;2256;48.740;9.106;2023-03-02T06:06:03;60.22;;;22.98;;
4486;SDS011;2256;48.740;9.106;2023-03-02T06:08:30;54.78;;;21.30;;
4486;SDS011;2256;48.740;9.106;2023-03-02T06:10:57;52.65;;;20.50;;
4486;SDS011;2256;48.740;9.106;2023-03-02T06:13:24;49.92;;;19.95;;
4486;SDS011;2256;48.740;9.106;2023-03-02T06:15:51;49.40;;;19.92;;
4486;SDS011;2256;48.740;9.106;2023-03-02T06:18:18;60.20;;;23.02;;
4486;SDS011;2256;48.740;9.106;2023-03-02T06:20:44;55.40;;;20.85;;
4486;SDS011;2256;48.740;9.106;2023-03-02T06:23:13;56.15;;;22.42;;
4486;SDS011;2256;48.740;9.106;2023-03-02T06:25:41;58.58;;;22.38;;
4486;SDS011;2256;48.740;9.106;2023-03-02T06:28:12;58.33;;;20.83;;
4486;SDS011;2256;48.740;9.106;2023-03-02T06:30:39;49.40;;;21.08;;
4486;SDS011;2256;48.740;9.106;2023-03-02T06:33:06;68.95;;;21.70;;
4486;SDS011;2256;48.740;9.106;2023-03-02T06:35:33;57.95;;;22.50;;
4486;SDS011;2256;48.740;9.106;2023-03-02T06:38:00;60.42;;;22.77;;
4486;SDS011;2256;48.740;9.106;2023-03-02T06:40:28;57.55;;;21.33;;
4486;SDS011;2256;48.740;9.106;2023-03-02T06:42:55;54.20;;;21.75;;
4486;SDS011;2256;48.740;9.106;2023-03-02T06:45:24;53.83;;;19.67;;
4486;SDS011;2256;48.740;9.106;2023-03-02T06:47:51;50.80;;;21.63;;
4486;SDS011;2256;48.740;9.106;2023-03-02T06:50:18;55.50;;;20.52;;
4486;SDS011;2256;48.740;9.106;2023-03-02T06:52:45;49.03;;;20.33;;
4486;SDS011;2256;48.740;9.106;2023-03-02T06:55:12;51.28;;;20.75;;
4486;SDS011;2256;48.740;9.106;2023-03-02T06:57:40;48.15;;;20.73;;
4486;SDS011;2256;48.740;9.106;2023-03-02T07:00:07;65.78;;;21.55;;
4486;SDS011;2256;48.740;9.106;2023-03-02T07:02:38;52.63;;;20.98;;
4486;SDS011;2256;48.740;9.106;2023-03-02T07:05:05;52.55;;;21.27;;
4486;SDS011;2256;48.740;9.106;2023-03-02T07:07:32;47.97;;;20.67;;
4486;SDS011;2256;48.740;9.106;2023-03-02T07:10:00;51.55;;;19.67;;
4486;SDS011;2256;48.740;9.106;2023-03-02T07:12:26;57.08;;;21.35;;
4486;SDS011;2256;48.740;9.106;2023-03-02T07:14:55;43.83;;;19.33;;
4486;SDS011;2256;48.740;9.106;2023-03-02T07:17:21;60.53;;;22.67;;
4486;SDS011;2256;48.740;9.106;2023-03-02T07:19:48;50.45;;;20.88;;
4486;SDS011;2256;48.740;9.106;2023-03-02T07:22:15;55.10;;;22.15;;
4486;SDS011;2256;48.740;9.106;2023-03-02T07:24:42;58.42;;;20.75;;
4486;SDS011;2256;48.740;9.106;2023-03-02T07:27:08;54.63;;;19.88;;
4486;SDS011;2256;48.740;9.106;2023-03-02T07:29:35;57.30;;;21.55;;
4486;SDS011;2256;48.740;9.106;2023-03-02T07:32:04;52.13;;;21.00;;
4486;SDS011;2256;48.740;9.106;2023-03-02T07:34:31;51.95;;;21.00;;
4486;SDS011;2256;48.740;9.106;2023-03-02T07:36:57;57.72;;;21.95;;
4486;SDS011;2256;48.740;9.106;2023-03-02T07:39:25;52.90;;;20.77;;
4486;SDS011;2256;48.740;9.106;2023-03-02T07:41:56;55.03;;;22.17;;
4486;SDS011;2256;48.740;9.106;2023-03-02T07:44:24;54.25;;;20.75;;
4486;SDS011;2256;48.740;9.106;2023-03-02T07:46:50;61.30;;;20.80;;
4486;SDS011;2256;48.740;9.106;2023-03-02T07:49:19;49.75;;;19.67;;
4486;SDS011;2256;48.740;9.106;2023-03-02T07:51:45;48.45;;;20.13;;
4486;SDS011;2256;48.740;9.106;2023-03-02T07:54:12;56.83;;;21.17;;
4486;SDS011;2256;48.740;9.106;2023-03-02T07:56:39;44.03;;;18.35;;
4486;SDS011;2256;48.740;9.106;2023-03-02T07:59:06;48.85;;;18.92;;
4486;SDS011;2256;48.740;9.106;2023-03-02T08:01:33;53.00;;;20.48;;
4486;SDS011;2256;48.740;9.106;2023-03-02T08:04:00;48.58;;;20.08;;
4486;SDS011;2256;48.740;9.106;2023-03-02T08:06:28;49.30;;;20.50;;
4486;SDS011;2256;48.740;9.106;2023-03-02T08:08:55;57.80;;;21.77;;
4486;SDS011;2256;48.740;9.106;2023-03-02T08:11:21;56.53;;;20.60;;
4486;SDS011;2256;48.740;9.106;2023-03-02T08:13:48;48.17;;;19.20;;
4486;SDS011;2256;48.740;9.106;2023-03-02T08:16:15;50.53;;;20.30;;
4486;SDS011;2256;48.740;9.106;2023-03-02T08:18:42;54.75;;;20.95;;
4486;SDS011;2256;48.740;9.106;2023-03-02T08:21:10;48.22;;;20.02;;
4486;SDS011;2256;48.740;9.106;2023-03-02T08:23:41;49.70;;;20.95;;
4486;SDS011;2256;48.740;9.106;2023-03-02T08:26:08;45.72;;;20.30;;
4486;SDS011;2256;48.740;9.106;2023-03-02T08:28:35;54.97;;;20.00;;
4486;SDS011;2256;48.740;9.106;2023-03-02T08:31:02;47.45;;;19.50;;
4486;SDS011;2256;48.740;9.106;2023-03-02T08:33:30;49.65;;;19.35;;
4486;SDS011;2256;48.740;9.106;2023-03-02T08:35:58;53.40;;;20.40;;
4486;SDS011;2256;48.740;9.106;2023-03-02T08:38:26;50.30;;;19.70;;
4486;SDS011;2256;48.740;9.106;2023-03-02T08:40:54;44.50;;;19.48;;
4486;SDS011;2256;48.740;9.106;2023-03-02T08:43:23;53.10;;;20.75;;
4486;SDS011;2256;48.740;9.106;2023-03-02T08:45:51;51.88;;;19.73;;
4486;SDS011;2256;48.740;9.106;2023-03-02T08:48:18;56.40;;;19.80;;
4486;SDS011;2256;48.740;9.106;2023-03-02T08:50:53;44.70;;;19.98;;
4486;SDS011;2256;48.740;9.106;2023-03-02T08:53:20;50.40;;;19.60;;
4486;SDS011;2256;48.740;9.106;2023-03-02T08:55:47;45.50;;;18.17;;
4486;SDS011;2256;48.740;9.106;2023-03-02T08:58:16;44.53;;;19.85;;
4486;SDS011;2256;48.740;9.106;2023-03-02T09:00:43;53.17;;;20.25;;
4486;SDS011;2256;48.740;9.106;2023-03-02T09:03:10;45.88;;;20.50;;
4486;SDS011;2256;48.740;9.106;2023-03-02T09:05:37;42.53;;;17.52;;
4486;SDS011;2256;48.740;9.106;2023-03-02T09:08:04;46.22;;;18.33;;
4486;SDS011;2256;48.740;9.106;2023-03-02T09:10:31;43.45;;;18.13;;
4486;SDS011;2256;48.740;9.106;2023-03-02T09:12:58;45.10;;;17.02;;
4486;SDS011;2256;48.740;9.106;2023-03-02T09:15:27;40.45;;;17.35;;
4486;SDS011;2256;48.740;9.106;2023-03-02T09:17:55;43.22;;;17.73;;
4486;SDS011;2256;48.740;9.106;2023-03-02T09:20:22;50.58;;;18.33;;
4486;SDS011;2256;48.740;9.106;2023-03-02T09:22:49;48.28;;;17.75;;
4486;SDS011;2256;48.740;9.106;2023-03-02T09:25:16;42.85;;;18.65;;
4486;SDS011;2256;48.740;9.106;2023-03-02T09:27:43;52.45;;;19.65;;
4486;SDS011;2256;48.740;9.106;2023-03-02T09:30:11;45.92;;;19.45;;
4486;SDS011;2256;48.740;9.106;2023-03-02T09:32:41;43.25;;;17.52;;
4486;SDS011;2256;48.740;9.106;2023-03-02T09:35:09;45.88;;;17.15;;
4486;SDS011;2256;48.740;9.106;2023-03-02T09:37:35;46.45;;;19.48;;
4486;SDS011;2256;48.740;9.106;2023-03-02T09:40:03;52.33;;;17.70;;
4486;SDS011;2256;48.740;9.106;2023-03-02T09:45:44;41.22;;;17.17;;
4486;SDS011;2256;48.740;9.106;2023-03-02T09:48:20;42.72;;;17.60;;
4486;SDS011;2256;48.740;9.106;2023-03-02T09:51:01;47.38;;;17.00;;
4486;SDS011;2256;48.740;9.106;2023-03-02T09:53:38;40.35;;;17.02;;
4486;SDS011;2256;48.740;9.106;2023-03-02T09:56:12;41.92;;;16.70;;
4486;SDS011;2256;48.740;9.106;2023-03-02T09:58:44;53.95;;;18.55;;
4486;SDS011;2256;48.740;9.106;2023-03-02T10:01:20;44.22;;;18.73;;
4486;SDS011;2256;48.740;9.106;2023-03-02T10:03:59;34.42;;;16.00;;
4486;SDS011;2256;48.740;9.106;2023-03-02T10:06:33;46.55;;;17.90;;
4486;SDS011;2256;48.740;9.106;2023-03-02T10:09:00;40.08;;;18.15;;
4486;SDS011;2256;48.740;9.106;2023-03-02T10:11:29;39.75;;;18.15;;
4486;SDS011;2256;48.740;9.106;2023-03-02T10:14:02;38.13;;;18.10;;
4486;SDS011;2256;48.740;9.106;2023-03-02T10:16:36;44.53;;;17.60;;
4486;SDS011;2256;48.740;9.106;2023-03-02T10:19:14;43.30;;;17.77;;
4486;SDS011;2256;48.740;9.106;2023-03-02T10:21:50;40.65;;;17.02;;
4486;SDS011;2256;48.740;9.106;2023-03-02T10:24:23;39.72;;;17.23;;
4486;SDS011;2256;48.740;9.106;2023-03-02T10:26:57;43.95;;;18.70;;
4486;SDS011;2256;48.740;9.106;2023-03-02T10:29:35;35.83;;;17.15;;
4486;SDS011;2256;48.740;9.106;2023-03-02T10:32:15;35.92;;;16.67;;
4486;SDS011;2256;48.740;9.106;2023-03-02T10:34:46;36.85;;;16.58;;
4486;SDS011;2256;48.740;9.106;2023-03-02T10:37:15;39.42;;;16.88;;
4486;SDS011;2256;48.740;9.106;2023-03-02T10:39:44;40.33;;;18.27;;
4486;SDS011;2256;48.740;9.106;2023-03-02T10:42:13;41.45;;;18.02;;
4486;SDS011;2256;48.740;9.106;2023-03-02T10:44:47;44.65;;;17.60;;
4486;SDS011;2256;48.740;9.106;2023-03-02T10:47:19;33.65;;;16.15;;
4486;SDS011;2256;48.740;9.106;2023-03-02T10:49:49;47.63;;;17.65;;
4486;SDS011;2256;48.740;9.106;2023-03-02T10:52:17;53.47;;;17.83;;
4486;SDS011;2256;48.740;9.106;2023-03-02T10:54:44;48.65;;;19.00;;
4486;SDS011;2256;48.740;9.106;2023-03-02T10:57:26;42.47;;;18.20;;
4486;SDS011;2256;48.740;9.106;2023-03-02T10:59:59;41.53;;;17.25;;
4486;SDS011;2256;48.740;9.106;2023-03-02T11:02:27;37.60;;;18.48;;
4486;SDS011;2256;48.740;9.106;2023-03-02T11:05:12;38.97;;;17.75;;
4486;SDS011;2256;48.740;9.106;2023-03-02T11:07:51;37.70;;;17.95;;
4486;SDS011;2256;48.740;9.106;2023-03-02T11:10:19;38.50;;;17.25;;
4486;SDS011;2256;48.740;9.106;2023-03-02T11:12:48;40.40;;;17.23;;
4486;SDS011;2256;48.740;9.106;2023-03-02T11:15:26;40.53;;;17.80;;
4486;SDS011;2256;48.740;9.106;2023-03-02T11:18:00;39.42;;;18.42;;
4486;SDS011;2256;48.740;9.106;2023-03-02T11:20:31;43.95;;;19.25;;
4486;SDS011;2256;48.740;9.106;2023-03-02T11:23:06;41.13;;;18.42;;
4486;SDS011;2256;48.740;9.106;2023-03-02T11:25:44;38.17;;;19.20;;
4486;SDS011;2256;48.740;9.106;2023-03-02T11:28:21;39.67;;;18.10;;
4486;SDS011;2256;48.740;9.106;2023-03-02T11:31:15;45.25;;;19.15;;
4486;SDS011;2256;48.740;9.106;2023-03-02T11:34:01;43.58;;;18.80;;
4486;SDS011;2256;48.740;9.106;2023-03-02T11:36:39;62.03;;;20.73;;
4486;SDS011;2256;48.740;9.106;2023-03-02T11:39:11;44.03;;;19.08;;
4486;SDS011;2256;48.740;9.106;2023-03-02T11:41:42;54.55;;;19.45;;
4486;SDS011;2256;48.740;9.106;2023-03-02T11:44:13;45.43;;;20.63;;
4486;SDS011;2256;48.740;9.106;2023-03-02T11:46:43;50.30;;;19.43;;
4486;SDS011;2256;48.740;9.106;2023-03-02T11:49:13;40.40;;;18.50;;
4486;SDS011;2256;48.740;9.106;2023-03-02T11:51:46;39.13;;;18.60;;
4486;SDS011;2256;48.740;9.106;2023-03-02T11:54:24;41.70;;;19.53;;
4486;SDS011;2256;48.740;9.106;2023-03-02T11:57:00;44.83;;;19.40;;
4486;SDS011;2256;48.740;9.106;2023-03-02T11:59:28;48.67;;;19.30;;
4486;SDS011;2256;48.740;9.106;2023-03-02T12:01:56;47.77;;;20.43;;
4486;SDS011;2256;48.740;9.106;2023-03-02T12:04:26;41.37;;;19.13;;
4486;SDS011;2256;48.740;9.106;2023-03-02T12:06:57;46.10;;;18.73;;
4486;SDS011;2256;48.740;9.106;2023-03-02T12:09:31;53.10;;;20.93;;
4486;SDS011;2256;48.740;9.106;2023-03-02T12:12:18;47.60;;;19.30;;
4486;SDS011;2256;48.740;9.106;2023-03-02T12:14:58;46.37;;;20.33;;
4486;SDS011;2256;48.740;9.106;2023-03-02T12:17:30;42.40;;;19.97;;
4486;SDS011;2256;48.740;9.106;2023-03-02T12:22:52;41.00;;;19.63;;
4486;SDS011;2256;48.740;9.106;2023-03-02T12:25:35;43.37;;;19.47;;
4486;SDS011;2256;48.740;9.106;2023-03-02T12:28:04;39.87;;;19.30;;
4486;SDS011;2256;48.740;9.106;2023-03-02T12:30:54;43.27;;;20.00;;
4486;SDS011;2256;48.740;9.106;2023-03-02T12:33:22;47.17;;;20.67;;
4486;SDS011;2256;48.740;9.106;2023-03-02T12:35:49;47.07;;;19.40;;
4486;SDS011;2256;48.740;9.106;2023-03-02T12:38:28;39.53;;;20.77;;
4486;SDS011;2256;48.740;9.106;2023-03-02T12:41:10;44.93;;;19.53;;
4486;SDS011;2256;48.740;9.106;2023-03-02T12:43:49;37.83;;;19.00;;
4486;SDS011;2256;48.740;9.106;2023-03-02T12:46:28;43.63;;;19.00;;
4486;SDS011;2256;48.740;9.106;2023-03-02T12:49:04;52.73;;;20.07;;
4486;SDS011;2256;48.740;9.106;2023-03-02T12:51:54;41.37;;;19.60;;
4486;SDS011;2256;48.740;9.106;2023-03-02T12:54:24;48.27;;;18.70;;
4486;SDS011;2256;48.740;9.106;2023-03-02T12:57:02;42.63;;;18.60;;
4486;SDS011;2256;48.740;9.106;2023-03-02T12:59:33;44.97;;;19.13;;
4486;SDS011;2256;48.740;9.106;2023-03-02T13:02:14;43.37;;;20.63;;
4486;SDS011;2256;48.740;9.106;2023-03-02T13:04:42;41.07;;;19.57;;
4486;SDS011;2256;48.740;9.106;2023-03-02T13:07:16;47.90;;;18.67;;
4486;SDS011;2256;48.740;9.106;2023-03-02T13:09:48;44.87;;;20.83;;
4486;SDS011;2256;48.740;9.106;2023-03-02T13:12:16;38.93;;;19.90;;
4486;SDS011;2256;48.740;9.106;2023-03-02T13:14:44;38.80;;;19.13;;
4486;SDS011;2256;48.740;9.106;2023-03-02T13:17:21;46.43;;;18.90;;
4486;SDS011;2256;48.740;9.106;2023-03-02T13:19:50;39.17;;;19.63;;
4486;SDS011;2256;48.740;9.106;2023-03-02T13:22:17;41.40;;;18.67;;
4486;SDS011;2256;48.740;9.106;2023-03-02T13:24:50;41.37;;;19.20;;
4486;SDS011;2256;48.740;9.106;2023-03-02T13:27:22;44.53;;;19.17;;
4486;SDS011;2256;48.740;9.106;2023-03-02T13:29:50;47.03;;;19.80;;
4486;SDS011;2256;48.740;9.106;2023-03-02T13:32:20;36.40;;;18.20;;
4486;SDS011;2256;48.740;9.106;2023-03-02T13:34:49;41.80;;;18.50;;
4486;SDS011;2256;48.740;9.106;2023-03-02T13:37:20;45.50;;;19.83;;
4486;SDS011;2256;48.740;9.106;2023-03-02T13:39:55;34.27;;;17.90;;
4486;SDS011;2256;48.740;9.106;2023-03-02T13:42:25;37.57;;;18.20;;
4486;SDS011;2256;48.740;9.106;2023-03-02T13:44:54;41.93;;;19.53;;
4486;SDS011;2256;48.740;9.106;2023-03-02T13:47:21;44.60;;;20.27;;
4486;SDS011;2256;48.740;9.106;2023-03-02T13:49:49;36.90;;;18.67;;
4486;SDS011;2256;48.740;9.106;2023-03-02T13:52:16;36.30;;;17.97;;
4486;SDS011;2256;48.740;9.106;2023-03-02T13:54:48;36.70;;;17.03;;
4486;SDS011;2256;48.740;9.106;2023-03-02T13:57:18;35.53;;;17.90;;
4486;SDS011;2256;48.740;9.106;2023-03-02T13:59:49;39.60;;;18.93;;
4486;SDS011;2256;48.740;9.106;2023-03-02T14:02:18;36.50;;;17.63;;
4486;SDS011;2256;48.740;9.106;2023-03-02T14:04:48;34.43;;;17.60;;
4486;SDS011;2256;48.740;9.106;2023-03-02T14:07:15;34.87;;;17.03;;
4486;SDS011;2256;48.740;9.106;2023-03-02T14:09:42;38.37;;;17.47;;
4486;SDS011;2256;48.740;9.106;2023-03-02T14:12:10;35.57;;;17.37;;
4486;SDS011;2256;48.740;9.106;2023-03-02T14:14:47;47.30;;;18.03;;
4486;SDS011;2256;48.740;9.106;2023-03-02T14:17:15;44.00;;;17.40;;
4486;SDS011;2256;48.740;9.106;2023-03-02T14:19:46;45.60;;;18.17;;
4486;SDS011;2256;48.740;9.106;2023-03-02T14:22:16;45.70;;;17.00;;
4486;SDS011;2256;48.740;9.106;2023-03-02T14:24:43;47.00;;;19.40;;
4486;SDS011;2256;48.740;9.106;2023-03-02T14:27:11;39.93;;;18.17;;
4486;SDS011;2256;48.740;9.106;2023-03-02T14:29:39;36.07;;;16.80;;
4486;SDS011;2256;48.740;9.106;2023-03-02T14:32:09;39.53;;;20.00;;
4486;SDS011;2256;48.740;9.106;2023-03-02T14:34:37;37.53;;;17.87;;
4486;SDS011;2256;48.740;9.106;2023-03-02T14:37:06;38.40;;;16.80;;
4486;SDS011;2256;48.740;9.106;2023-03-02T14:39:37;40.53;;;19.30;;
4486;SDS011;2256;48.740;9.106;2023-03-02T14:42:05;38.57;;;16.50;;
4486;SDS011;2256;48.740;9.106;2023-03-02T14:44:36;36.03;;;17.10;;
4486;SDS011;2256;48.740;9.106;2023-03-02T14:47:03;34.90;;;17.30;;
4486;SDS011;2256;48.740;9.106;2023-03-02T14:49:32;41.20;;;18.80;;
4486;SDS011;2256;48.740;9.106;2023-03-02T14:51:59;41.37;;;20.20;;
4486;SDS011;2256;48.740;9.106;2023-03-02T14:54:30;42.93;;;17.90;;
4486;SDS011;2256;48.740;9.106;2023-03-02T14:57:03;37.73;;;18.03;;
4486;SDS011;2256;48.740;9.106;2023-03-02T14:59:32;47.17;;;19.67;;
4486;SDS011;2256;48.740;9.106;2023-03-02T15:01:59;42.03;;;20.60;;
4486;SDS011;2256;48.740;9.106;2023-03-02T15:04:25;41.50;;;18.30;;
4486;SDS011;2256;48.740;9.106;2023-03-02T15:06:53;37.37;;;16.50;;